Avondale, Missouri
Current Conditions -  °F | °C
As of 5:54 AM on Friday 28 Nov 2014 (Local Time) from KMKC Reporting Station
Clear Clear  
Wind Chill: 30°   Ceiling: Unl
Heat Index: 36°   Visibility: 10mi
Dew Point: 23°   Wind: 8mph
Humidity: 59%   Direction: 190°S
Pressure: 30.04"   Gusts: NA
Location:  39.1657°N, 94.5231°W
Report Text: KMKC 281154Z 19007KT 10SM CLR 02/M05 A3004 RMK AO2 SLP179 T00221050 10028 20000 58032
Loading
Personal Weather Stations






























Interactive Weather Map New forecast layout! Learn more

10-Day Weather Forecast

Advertisements
Track Severe Weather on mobile